sensor_id;sensor_type;location;lat;lon;timestamp;P1;durP1;ratioP1;P2;durP2;ratioP2
12163;SDS011;6145;50.192;10.064;2023-06-19T00:00:05;8.00;;;7.30;;
12163;SDS011;6145;50.192;10.064;2023-06-19T00:02:37;7.95;;;7.28;;
12163;SDS011;6145;50.192;10.064;2023-06-19T00:05:04;7.68;;;7.00;;
12163;SDS011;6145;50.192;10.064;2023-06-19T00:07:32;8.60;;;7.80;;
12163;SDS011;6145;50.192;10.064;2023-06-19T00:10:00;8.05;;;7.35;;
12163;SDS011;6145;50.192;10.064;2023-06-19T00:12:27;8.45;;;7.70;;
12163;SDS011;6145;50.192;10.064;2023-06-19T00:14:54;7.65;;;7.05;;
12163;SDS011;6145;50.192;10.064;2023-06-19T00:17:21;7.95;;;7.25;;
12163;SDS011;6145;50.192;10.064;2023-06-19T00:19:50;8.07;;;7.28;;
12163;SDS011;6145;50.192;10.064;2023-06-19T00:22:17;8.10;;;7.30;;
12163;SDS011;6145;50.192;10.064;2023-06-19T00:24:44;7.72;;;7.00;;
12163;SDS011;6145;50.192;10.064;2023-06-19T00:27:12;8.20;;;7.50;;
12163;SDS011;6145;50.192;10.064;2023-06-19T00:29:39;7.55;;;6.95;;
12163;SDS011;6145;50.192;10.064;2023-06-19T00:32:06;7.28;;;6.68;;
12163;SDS011;6145;50.192;10.064;2023-06-19T00:34:33;8.32;;;7.60;;
12163;SDS011;6145;50.192;10.064;2023-06-19T00:37:02;8.18;;;7.47;;
12163;SDS011;6145;50.192;10.064;2023-06-19T00:39:29;7.68;;;7.07;;
12163;SDS011;6145;50.192;10.064;2023-06-19T00:41:55;8.23;;;7.53;;
12163;SDS011;6145;50.192;10.064;2023-06-19T00:44:24;7.90;;;7.20;;
12163;SDS011;6145;50.192;10.064;2023-06-19T00:46:51;8.45;;;7.65;;
12163;SDS011;6145;50.192;10.064;2023-06-19T00:49:22;8.18;;;7.47;;
12163;SDS011;6145;50.192;10.064;2023-06-19T00:51:50;8.48;;;7.65;;
12163;SDS011;6145;50.192;10.064;2023-06-19T00:54:17;8.07;;;7.38;;
12163;SDS011;6145;50.192;10.064;2023-06-19T00:56:45;8.40;;;7.60;;
12163;SDS011;6145;50.192;10.064;2023-06-19T00:59:14;8.13;;;7.50;;
12163;SDS011;6145;50.192;10.064;2023-06-19T01:01:44;9.45;;;8.55;;
12163;SDS011;6145;50.192;10.064;2023-06-19T01:04:12;7.50;;;6.90;;
12163;SDS011;6145;50.192;10.064;2023-06-19T01:06:40;8.37;;;7.67;;
12163;SDS011;6145;50.192;10.064;2023-06-19T01:09:13;8.23;;;7.53;;
12163;SDS011;6145;50.192;10.064;2023-06-19T01:11:43;8.27;;;7.57;;
12163;SDS011;6145;50.192;10.064;2023-06-19T01:14:33;8.30;;;7.50;;
12163;SDS011;6145;50.192;10.064;2023-06-19T01:17:03;9.13;;;8.33;;
12163;SDS011;6145;50.192;10.064;2023-06-19T01:19:31;7.97;;;7.37;;
12163;SDS011;6145;50.192;10.064;2023-06-19T01:22:01;8.33;;;7.57;;
12163;SDS011;6145;50.192;10.064;2023-06-19T01:24:28;7.40;;;6.80;;
12163;SDS011;6145;50.192;10.064;2023-06-19T01:26:55;7.90;;;7.10;;
12163;SDS011;6145;50.192;10.064;2023-06-19T01:29:22;8.17;;;7.40;;
12163;SDS011;6145;50.192;10.064;2023-06-19T01:31:50;8.77;;;7.97;;
12163;SDS011;6145;50.192;10.064;2023-06-19T01:34:23;8.63;;;7.90;;
12163;SDS011;6145;50.192;10.064;2023-06-19T01:36:52;7.57;;;6.97;;
12163;SDS011;6145;50.192;10.064;2023-06-19T01:39:23;8.00;;;7.40;;
12163;SDS011;6145;50.192;10.064;2023-06-19T01:41:51;8.67;;;7.93;;
12163;SDS011;6145;50.192;10.064;2023-06-19T01:44:20;8.60;;;7.70;;
12163;SDS011;6145;50.192;10.064;2023-06-19T01:46:47;7.90;;;7.20;;
12163;SDS011;6145;50.192;10.064;2023-06-19T01:49:15;9.63;;;8.63;;
12163;SDS011;6145;50.192;10.064;2023-06-19T01:51:42;7.87;;;7.17;;
12163;SDS011;6145;50.192;10.064;2023-06-19T01:54:09;8.37;;;7.77;;
12163;SDS011;6145;50.192;10.064;2023-06-19T01:56:37;8.97;;;8.17;;
12163;SDS011;6145;50.192;10.064;2023-06-19T01:59:04;8.63;;;7.80;;
12163;SDS011;6145;50.192;10.064;2023-06-19T02:01:31;8.33;;;7.63;;
12163;SDS011;6145;50.192;10.064;2023-06-19T02:03:58;8.10;;;7.40;;
12163;SDS011;6145;50.192;10.064;2023-06-19T02:06:25;7.97;;;7.37;;
12163;SDS011;6145;50.192;10.064;2023-06-19T02:08:51;8.27;;;7.47;;
12163;SDS011;6145;50.192;10.064;2023-06-19T02:11:18;8.10;;;7.40;;
12163;SDS011;6145;50.192;10.064;2023-06-19T02:13:46;8.30;;;7.60;;
12163;SDS011;6145;50.192;10.064;2023-06-19T02:16:13;8.53;;;7.73;;
12163;SDS011;6145;50.192;10.064;2023-06-19T02:18:40;8.30;;;7.50;;
12163;SDS011;6145;50.192;10.064;2023-06-19T02:21:07;8.33;;;7.63;;
12163;SDS011;6145;50.192;10.064;2023-06-19T02:23:34;8.40;;;7.70;;
12163;SDS011;6145;50.192;10.064;2023-06-19T02:26:09;8.27;;;7.33;;
12163;SDS011;6145;50.192;10.064;2023-06-19T02:28:36;8.50;;;7.70;;
12163;SDS011;6145;50.192;10.064;2023-06-19T02:31:04;7.77;;;7.17;;
12163;SDS011;6145;50.192;10.064;2023-06-19T02:33:31;7.93;;;7.23;;
12163;SDS011;6145;50.192;10.064;2023-06-19T02:35:58;8.40;;;7.70;;
12163;SDS011;6145;50.192;10.064;2023-06-19T02:38:28;8.10;;;7.40;;
12163;SDS011;6145;50.192;10.064;2023-06-19T02:40:55;8.33;;;7.53;;
12163;SDS011;6145;50.192;10.064;2023-06-19T02:43:25;8.53;;;7.27;;
12163;SDS011;6145;50.192;10.064;2023-06-19T02:45:52;7.70;;;7.00;;
12163;SDS011;6145;50.192;10.064;2023-06-19T02:48:20;8.90;;;8.10;;
12163;SDS011;6145;50.192;10.064;2023-06-19T02:50:48;8.17;;;7.47;;
12163;SDS011;6145;50.192;10.064;2023-06-19T02:53:15;8.63;;;7.33;;
12163;SDS011;6145;50.192;10.064;2023-06-19T02:55:42;8.27;;;7.57;;
12163;SDS011;6145;50.192;10.064;2023-06-19T02:58:09;8.53;;;7.83;;
12163;SDS011;6145;50.192;10.064;2023-06-19T03:00:36;8.77;;;8.07;;
12163;SDS011;6145;50.192;10.064;2023-06-19T03:03:02;9.67;;;8.13;;
12163;SDS011;6145;50.192;10.064;2023-06-19T03:05:31;8.63;;;7.83;;
12163;SDS011;6145;50.192;10.064;2023-06-19T03:07:57;8.37;;;7.67;;
12163;SDS011;6145;50.192;10.064;2023-06-19T03:10:24;8.03;;;7.33;;
12163;SDS011;6145;50.192;10.064;2023-06-19T03:12:51;8.67;;;7.87;;
12163;SDS011;6145;50.192;10.064;2023-06-19T03:15:18;9.13;;;8.33;;
12163;SDS011;6145;50.192;10.064;2023-06-19T03:17:44;8.23;;;7.50;;
12163;SDS011;6145;50.192;10.064;2023-06-19T03:20:11;8.33;;;7.63;;
12163;SDS011;6145;50.192;10.064;2023-06-19T03:22:40;8.27;;;7.47;;
12163;SDS011;6145;50.192;10.064;2023-06-19T03:25:08;8.70;;;7.90;;
12163;SDS011;6145;50.192;10.064;2023-06-19T03:27:34;9.07;;;8.27;;
12163;SDS011;6145;50.192;10.064;2023-06-19T03:30:01;9.43;;;8.63;;
12163;SDS011;6145;50.192;10.064;2023-06-19T03:32:31;11.80;;;8.37;;
12163;SDS011;6145;50.192;10.064;2023-06-19T03:34:58;9.67;;;8.83;;
12163;SDS011;6145;50.192;10.064;2023-06-19T03:37:25;8.77;;;8.07;;
12163;SDS011;6145;50.192;10.064;2023-06-19T03:39:53;9.63;;;8.70;;
12163;SDS011;6145;50.192;10.064;2023-06-19T03:42:20;9.23;;;8.43;;
12163;SDS011;6145;50.192;10.064;2023-06-19T03:47:18;9.40;;;8.50;;
12163;SDS011;6145;50.192;10.064;2023-06-19T03:49:45;9.23;;;8.33;;
12163;SDS011;6145;50.192;10.064;2023-06-19T03:52:13;8.97;;;8.07;;
12163;SDS011;6145;50.192;10.064;2023-06-19T03:54:40;9.10;;;8.37;;
12163;SDS011;6145;50.192;10.064;2023-06-19T03:57:09;8.23;;;7.53;;
12163;SDS011;6145;50.192;10.064;2023-06-19T03:59:35;9.70;;;8.70;;
12163;SDS011;6145;50.192;10.064;2023-06-19T04:02:02;9.40;;;8.50;;
12163;SDS011;6145;50.192;10.064;2023-06-19T04:04:29;8.70;;;7.80;;
12163;SDS011;6145;50.192;10.064;2023-06-19T04:06:56;9.13;;;8.33;;
12163;SDS011;6145;50.192;10.064;2023-06-19T04:09:25;8.47;;;7.63;;
12163;SDS011;6145;50.192;10.064;2023-06-19T04:11:52;8.67;;;7.93;;
12163;SDS011;6145;50.192;10.064;2023-06-19T04:14:20;8.77;;;7.97;;
12163;SDS011;6145;50.192;10.064;2023-06-19T04:16:48;8.47;;;7.67;;
12163;SDS011;6145;50.192;10.064;2023-06-19T04:19:15;10.47;;;8.30;;
12163;SDS011;6145;50.192;10.064;2023-06-19T04:21:42;9.10;;;8.20;;
12163;SDS011;6145;50.192;10.064;2023-06-19T04:24:08;9.00;;;8.27;;
12163;SDS011;6145;50.192;10.064;2023-06-19T04:26:35;8.50;;;7.80;;
12163;SDS011;6145;50.192;10.064;2023-06-19T04:29:02;9.23;;;8.43;;
12163;SDS011;6145;50.192;10.064;2023-06-19T04:31:33;9.27;;;8.47;;
12163;SDS011;6145;50.192;10.064;2023-06-19T04:37:27;8.20;;;7.40;;
12163;SDS011;6145;50.192;10.064;2023-06-19T04:39:54;9.53;;;8.73;;
12163;SDS011;6145;50.192;10.064;2023-06-19T04:42:25;9.37;;;8.47;;
12163;SDS011;6145;50.192;10.064;2023-06-19T04:44:55;9.00;;;8.10;;
12163;SDS011;6145;50.192;10.064;2023-06-19T04:47:25;9.63;;;8.77;;
12163;SDS011;6145;50.192;10.064;2023-06-19T04:49:52;8.87;;;8.07;;
12163;SDS011;6145;50.192;10.064;2023-06-19T04:52:19;9.40;;;8.60;;
12163;SDS011;6145;50.192;10.064;2023-06-19T04:54:46;9.87;;;9.07;;
12163;SDS011;6145;50.192;10.064;2023-06-19T04:57:13;9.27;;;8.37;;
12163;SDS011;6145;50.192;10.064;2023-06-19T04:59:40;9.93;;;9.03;;
12163;SDS011;6145;50.192;10.064;2023-06-19T05:02:09;10.50;;;9.70;;
12163;SDS011;6145;50.192;10.064;2023-06-19T05:04:38;10.23;;;9.30;;
12163;SDS011;6145;50.192;10.064;2023-06-19T05:07:07;9.00;;;8.20;;
12163;SDS011;6145;50.192;10.064;2023-06-19T05:09:35;9.17;;;8.37;;
12163;SDS011;6145;50.192;10.064;2023-06-19T05:12:02;9.13;;;8.30;;
12163;SDS011;6145;50.192;10.064;2023-06-19T05:14:29;9.10;;;8.30;;
12163;SDS011;6145;50.192;10.064;2023-06-19T05:16:56;9.20;;;8.40;;
12163;SDS011;6145;50.192;10.064;2023-06-19T05:19:23;10.20;;;9.30;;
12163;SDS011;6145;50.192;10.064;2023-06-19T05:21:51;10.37;;;9.37;;
12163;SDS011;6145;50.192;10.064;2023-06-19T05:25:00;11.13;;;9.97;;
12163;SDS011;6145;50.192;10.064;2023-06-19T05:27:32;9.93;;;9.03;;
12163;SDS011;6145;50.192;10.064;2023-06-19T05:29:59;9.40;;;8.43;;
12163;SDS011;6145;50.192;10.064;2023-06-19T05:32:26;8.70;;;7.90;;
12163;SDS011;6145;50.192;10.064;2023-06-19T05:34:52;9.63;;;8.73;;
12163;SDS011;6145;50.192;10.064;2023-06-19T05:37:23;10.90;;;9.67;;
12163;SDS011;6145;50.192;10.064;2023-06-19T05:39:52;9.93;;;9.03;;
12163;SDS011;6145;50.192;10.064;2023-06-19T05:42:18;9.63;;;8.83;;
12163;SDS011;6145;50.192;10.064;2023-06-19T05:44:45;10.60;;;9.60;;
12163;SDS011;6145;50.192;10.064;2023-06-19T05:47:12;11.00;;;10.00;;
12163;SDS011;6145;50.192;10.064;2023-06-19T05:49:42;11.47;;;10.23;;
12163;SDS011;6145;50.192;10.064;2023-06-19T05:52:08;10.83;;;9.90;;
12163;SDS011;6145;50.192;10.064;2023-06-19T05:54:36;10.90;;;9.80;;
12163;SDS011;6145;50.192;10.064;2023-06-19T05:57:03;11.47;;;9.60;;
12163;SDS011;6145;50.192;10.064;2023-06-19T05:59:31;11.20;;;10.17;;
12163;SDS011;6145;50.192;10.064;2023-06-19T06:01:57;10.87;;;9.57;;
12163;SDS011;6145;50.192;10.064;2023-06-19T06:04:25;10.40;;;9.43;;
12163;SDS011;6145;50.192;10.064;2023-06-19T06:06:51;10.80;;;9.80;;
12163;SDS011;6145;50.192;10.064;2023-06-19T06:09:18;10.40;;;9.50;;
12163;SDS011;6145;50.192;10.064;2023-06-19T06:11:47;10.80;;;9.90;;
12163;SDS011;6145;50.192;10.064;2023-06-19T06:14:13;11.00;;;10.07;;
12163;SDS011;6145;50.192;10.064;2023-06-19T06:16:40;11.07;;;10.07;;
12163;SDS011;6145;50.192;10.064;2023-06-19T06:19:07;11.57;;;10.43;;
12163;SDS011;6145;50.192;10.064;2023-06-19T06:21:33;10.60;;;9.60;;
12163;SDS011;6145;50.192;10.064;2023-06-19T06:24:00;10.80;;;9.87;;
12163;SDS011;6145;50.192;10.064;2023-06-19T06:26:27;11.37;;;10.27;;
12163;SDS011;6145;50.192;10.064;2023-06-19T06:29:06;10.70;;;9.80;;
12163;SDS011;6145;50.192;10.064;2023-06-19T06:31:33;10.70;;;9.80;;
12163;SDS011;6145;50.192;10.064;2023-06-19T06:33:59;10.90;;;9.93;;
12163;SDS011;6145;50.192;10.064;2023-06-19T06:36:26;10.80;;;9.83;;
12163;SDS011;6145;50.192;10.064;2023-06-19T06:38:53;10.73;;;9.77;;
12163;SDS011;6145;50.192;10.064;2023-06-19T06:41:20;10.07;;;9.20;;
12163;SDS011;6145;50.192;10.064;2023-06-19T06:43:47;9.50;;;8.60;;
12163;SDS011;6145;50.192;10.064;2023-06-19T06:46:15;12.00;;;9.52;;
12163;SDS011;6145;50.192;10.064;2023-06-19T06:48:42;9.57;;;8.55;;
12163;SDS011;6145;50.192;10.064;2023-06-19T06:51:11;9.20;;;8.30;;
12163;SDS011;6145;50.192;10.064;2023-06-19T06:53:38;9.27;;;8.48;;
12163;SDS011;6145;50.192;10.064;2023-06-19T06:56:05;8.13;;;7.40;;
12163;SDS011;6145;50.192;10.064;2023-06-19T06:58:32;7.18;;;6.47;;
12163;SDS011;6145;50.192;10.064;2023-06-19T07:00:59;7.65;;;6.95;;
12163;SDS011;6145;50.192;10.064;2023-06-19T07:03:27;6.50;;;5.90;;
12163;SDS011;6145;50.192;10.064;2023-06-19T07:05:56;6.80;;;5.97;;
12163;SDS011;6145;50.192;10.064;2023-06-19T07:08:23;6.38;;;5.53;;
12163;SDS011;6145;50.192;10.064;2023-06-19T07:10:50;6.03;;;5.45;;
12163;SDS011;6145;50.192;10.064;2023-06-19T07:13:16;5.88;;;5.30;;
12163;SDS011;6145;50.192;10.064;2023-06-19T07:15:43;5.88;;;5.38;;
12163;SDS011;6145;50.192;10.064;2023-06-19T07:18:10;5.60;;;5.20;;
12163;SDS011;6145;50.192;10.064;2023-06-19T07:20:38;6.50;;;5.90;;
12163;SDS011;6145;50.192;10.064;2023-06-19T07:23:05;6.68;;;6.07;;
12163;SDS011;6145;50.192;10.064;2023-06-19T07:25:32;7.90;;;7.20;;
12163;SDS011;6145;50.192;10.064;2023-06-19T07:27:59;7.72;;;7.03;;
12163;SDS011;6145;50.192;10.064;2023-06-19T07:30:26;6.95;;;6.43;;
12163;SDS011;6145;50.192;10.064;2023-06-19T07:32:53;7.70;;;6.97;;
12163;SDS011;6145;50.192;10.064;2023-06-19T07:35:20;7.38;;;6.88;;
12163;SDS011;6145;50.192;10.064;2023-06-19T07:37:48;6.85;;;6.25;;
12163;SDS011;6145;50.192;10.064;2023-06-19T07:40:15;6.97;;;6.35;;
12163;SDS011;6145;50.192;10.064;2023-06-19T07:42:41;7.43;;;5.93;;
12163;SDS011;6145;50.192;10.064;2023-06-19T07:45:10;7.18;;;6.57;;
12163;SDS011;6145;50.192;10.064;2023-06-19T07:47:38;6.18;;;5.68;;
12163;SDS011;6145;50.192;10.064;2023-06-19T07:50:05;5.90;;;5.40;;
12163;SDS011;6145;50.192;10.064;2023-06-19T07:52:32;6.00;;;5.40;;
12163;SDS011;6145;50.192;10.064;2023-06-19T07:55:00;28.15;;;10.27;;
12163;SDS011;6145;50.192;10.064;2023-06-19T07:57:27;24.20;;;9.18;;
12163;SDS011;6145;50.192;10.064;2023-06-19T07:59:54;6.18;;;5.60;;
12163;SDS011;6145;50.192;10.064;2023-06-19T08:02:21;5.80;;;5.40;;
12163;SDS011;6145;50.192;10.064;2023-06-19T08:04:48;5.93;;;5.32;;
12163;SDS011;6145;50.192;10.064;2023-06-19T08:07:16;5.07;;;4.68;;
12163;SDS011;6145;50.192;10.064;2023-06-19T08:09:43;5.82;;;5.32;;
12163;SDS011;6145;50.192;10.064;2023-06-19T08:12:11;5.25;;;4.75;;
12163;SDS011;6145;50.192;10.064;2023-06-19T08:14:38;6.68;;;5.40;;
12163;SDS011;6145;50.192;10.064;2023-06-19T08:17:04;7.15;;;5.72;;
12163;SDS011;6145;50.192;10.064;2023-06-19T08:19:31;5.78;;;5.28;;
12163;SDS011;6145;50.192;10.064;2023-06-19T08:21:58;6.53;;;5.10;;
12163;SDS011;6145;50.192;10.064;2023-06-19T08:24:25;5.43;;;4.93;;
12163;SDS011;6145;50.192;10.064;2023-06-19T08:26:52;5.63;;;5.15;;
12163;SDS011;6145;50.192;10.064;2023-06-19T08:29:20;5.60;;;5.10;;
12163;SDS011;6145;50.192;10.064;2023-06-19T08:31:47;5.78;;;5.30;;
12163;SDS011;6145;50.192;10.064;2023-06-19T08:34:14;5.90;;;5.40;;
12163;SDS011;6145;50.192;10.064;2023-06-19T08:36:41;5.82;;;5.43;;
12163;SDS011;6145;50.192;10.064;2023-06-19T08:39:07;6.03;;;5.53;;
12163;SDS011;6145;50.192;10.064;2023-06-19T08:41:36;5.80;;;5.30;;
12163;SDS011;6145;50.192;10.064;2023-06-19T08:44:04;5.95;;;5.40;;
12163;SDS011;6145;50.192;10.064;2023-06-19T08:46:32;5.72;;;5.05;;
12163;SDS011;6145;50.192;10.064;2023-06-19T08:49:02;6.13;;;5.63;;
12163;SDS011;6145;50.192;10.064;2023-06-19T08:51:31;5.80;;;5.30;;
12163;SDS011;6145;50.192;10.064;2023-06-19T08:53:59;5.57;;;5.18;;
12163;SDS011;6145;50.192;10.064;2023-06-19T08:56:28;5.65;;;5.18;;
12163;SDS011;6145;50.192;10.064;2023-06-19T08:59:07;5.50;;;4.97;;
12163;SDS011;6145;50.192;10.064;2023-06-19T09:01:35;6.00;;;5.57;;
12163;SDS011;6145;50.192;10.064;2023-06-19T09:04:07;5.97;;;5.28;;
12163;SDS011;6145;50.192;10.064;2023-06-19T09:06:35;6.03;;;5.53;;
12163;SDS011;6145;50.192;10.064;2023-06-19T09:09:04;5.93;;;5.43;;
12163;SDS011;6145;50.192;10.064;2023-06-19T09:11:35;6.00;;;5.50;;
12163;SDS011;6145;50.192;10.064;2023-06-19T09:14:05;5.85;;;5.43;;
12163;SDS011;6145;50.192;10.064;2023-06-19T09:16:37;5.47;;;5.07;;
12163;SDS011;6145;50.192;10.064;2023-06-19T09:19:05;6.18;;;5.55;;
12163;SDS011;6145;50.192;10.064;2023-06-19T09:21:31;6.30;;;5.80;;
12163;SDS011;6145;50.192;10.064;2023-06-19T09:24:05;5.53;;;5.13;;
12163;SDS011;6145;50.192;10.064;2023-06-19T09:26:33;5.57;;;5.10;;
12163;SDS011;6145;50.192;10.064;2023-06-19T09:29:09;5.95;;;5.40;;
12163;SDS011;6145;50.192;10.064;2023-06-19T09:31:38;5.60;;;5.20;;
12163;SDS011;6145;50.192;10.064;2023-06-19T09:34:06;5.75;;;5.28;;
12163;SDS011;6145;50.192;10.064;2023-06-19T09:36:33;5.85;;;5.32;;
12163;SDS011;6145;50.192;10.064;2023-06-19T09:39:02;7.47;;;5.30;;
12163;SDS011;6145;50.192;10.064;2023-06-19T09:41:29;6.28;;;5.63;;
12163;SDS011;6145;50.192;10.064;2023-06-19T09:43:56;6.03;;;5.50;;
12163;SDS011;6145;50.192;10.064;2023-06-19T09:46:26;6.85;;;6.25;;
12163;SDS011;6145;50.192;10.064;2023-06-19T09:49:00;6.07;;;5.63;;
12163;SDS011;6145;50.192;10.064;2023-06-19T09:51:30;6.35;;;5.78;;
12163;SDS011;6145;50.192;10.064;2023-06-19T09:53:59;6.47;;;5.97;;
12163;SDS011;6145;50.192;10.064;2023-06-19T09:56:28;7.00;;;5.95;;
12163;SDS011;6145;50.192;10.064;2023-06-19T09:58:56;7.15;;;6.30;;
12163;SDS011;6145;50.192;10.064;2023-06-19T10:01:25;6.63;;;6.03;;
12163;SDS011;6145;50.192;10.064;2023-06-19T10:04:02;7.20;;;6.50;;
12163;SDS011;6145;50.192;10.064;2023-06-19T10:06:30;6.82;;;6.25;;
12163;SDS011;6145;50.192;10.064;2023-06-19T10:09:15;6.85;;;6.35;;
12163;SDS011;6145;50.192;10.064;2023-06-19T10:11:58;6.60;;;6.00;;
12163;SDS011;6145;50.192;10.064;2023-06-19T10:14:28;6.45;;;5.85;;
12163;SDS011;6145;50.192;10.064;2023-06-19T10:16:55;6.18;;;5.68;;
12163;SDS011;6145;50.192;10.064;2023-06-19T10:19:23;5.75;;;5.35;;
12163;SDS011;6145;50.192;10.064;2023-06-19T10:21:52;5.85;;;5.35;;
12163;SDS011;6145;50.192;10.064;2023-06-19T10:24:29;5.85;;;5.45;;
12163;SDS011;6145;50.192;10.064;2023-06-19T10:26:56;6.20;;;5.63;;
12163;SDS011;6145;50.192;10.064;2023-06-19T10:29:25;5.82;;;5.40;;
12163;SDS011;6145;50.192;10.064;2023-06-19T10:31:53;5.40;;;4.90;;
12163;SDS011;6145;50.192;10.064;2023-06-19T10:34:23;6.05;;;5.55;;
12163;SDS011;6145;50.192;10.064;2023-06-19T10:36:59;5.85;;;5.25;;
12163;SDS011;6145;50.192;10.064;2023-06-19T10:39:26;5.57;;;5.18;;
12163;SDS011;6145;50.192;10.064;2023-06-19T10:41:53;6.85;;;5.30;;
12163;SDS011;6145;50.192;10.064;2023-06-19T10:44:20;5.38;;;4.97;;
12163;SDS011;6145;50.192;10.064;2023-06-19T10:46:52;5.63;;;5.15;;
12163;SDS011;6145;50.192;10.064;2023-06-19T10:49:22;6.32;;;5.18;;
12163;SDS011;6145;50.192;10.064;2023-06-19T10:51:50;8.57;;;5.53;;
12163;SDS011;6145;50.192;10.064;2023-06-19T10:54:19;6.82;;;6.20;;
12163;SDS011;6145;50.192;10.064;2023-06-19T10:56:46;6.38;;;5.78;;
12163;SDS011;6145;50.192;10.064;2023-06-19T10:59:13;7.03;;;6.35;;
12163;SDS011;6145;50.192;10.064;2023-06-19T11:01:41;5.88;;;5.10;;
12163;SDS011;6145;50.192;10.064;2023-06-19T11:04:09;5.60;;;5.20;;
12163;SDS011;6145;50.192;10.064;2023-06-19T11:06:43;6.10;;;5.60;;
12163;SDS011;6145;50.192;10.064;2023-06-19T11:09:11;5.80;;;5.40;;
12163;SDS011;6145;50.192;10.064;2023-06-19T11:11:40;5.78;;;5.38;;
12163;SDS011;6145;50.192;10.064;2023-06-19T11:14:08;6.20;;;5.78;;
12163;SDS011;6145;50.192;10.064;2023-06-19T11:16:37;6.38;;;5.53;;
12163;SDS011;6145;50.192;10.064;2023-06-19T11:19:06;5.60;;;5.10;;
12163;SDS011;6145;50.192;10.064;2023-06-19T11:21:34;5.78;;;5.28;;
12163;SDS011;6145;50.192;10.064;2023-06-19T11:24:05;6.20;;;5.60;;
12163;SDS011;6145;50.192;10.064;2023-06-19T11:26:37;5.53;;;5.03;;
12163;SDS011;6145;50.192;10.064;2023-06-19T11:29:13;5.53;;;5.13;;
12163;SDS011;6145;50.192;10.064;2023-06-19T11:31:41;5.68;;;4.75;;
12163;SDS011;6145;50.192;10.064;2023-06-19T11:34:08;5.63;;;5.10;;
12163;SDS011;6145;50.192;10.064;2023-06-19T11:36:36;5.45;;;5.05;;
12163;SDS011;6145;50.192;10.064;2023-06-19T11:39:05;6.38;;;5.25;;
12163;SDS011;6145;50.192;10.064;2023-06-19T11:41:36;5.78;;;5.28;;
12163;SDS011;6145;50.192;10.064;2023-06-19T11:44:04;5.47;;;4.97;;
12163;SDS011;6145;50.192;10.064;2023-06-19T11:46:43;5.82;;;5.13;;
12163;SDS011;6145;50.192;10.064;2023-06-19T11:49:10;5.30;;;4.80;;
12163;SDS011;6145;50.192;10.064;2023-06-19T11:51:38;6.50;;;5.85;;
12163;SDS011;6145;50.192;10.064;2023-06-19T11:54:07;12.07;;;9.05;;
12163;SDS011;6145;50.192;10.064;2023-06-19T11:56:35;5.43;;;5.03;;
12163;SDS011;6145;50.192;10.064;2023-06-19T11:59:02;6.30;;;5.78;;
12163;SDS011;6145;50.192;10.064;2023-06-19T12:01:31;6.18;;;5.57;;
12163;SDS011;6145;50.192;10.064;2023-06-19T12:04:03;6.13;;;5.47;;
12163;SDS011;6145;50.192;10.064;2023-06-19T12:06:30;5.45;;;5.05;;
12163;SDS011;6145;50.192;10.064;2023-06-19T12:08:57;5.28;;;4.78;;
12163;SDS011;6145;50.192;10.064;2023-06-19T12:11:26;5.45;;;5.03;;
12163;SDS011;6145;50.192;10.064;2023-06-19T12:13:52;5.70;;;5.20;;
12163;SDS011;6145;50.192;10.064;2023-06-19T12:16:21;5.43;;;5.03;;
12163;SDS011;6145;50.192;10.064;2023-06-19T12:18:47;5.93;;;5.43;;
12163;SDS011;6145;50.192;10.064;2023-06-19T12:21:14;5.38;;;4.90;;
12163;SDS011;6145;50.192;10.064;2023-06-19T12:23:41;5.40;;;4.93;;
12163;SDS011;6145;50.192;10.064;2023-06-19T12:26:08;8.00;;;5.68;;
12163;SDS011;6145;50.192;10.064;2023-06-19T12:28:36;6.55;;;5.95;;
12163;SDS011;6145;50.192;10.064;2023-06-19T12:31:03;5.63;;;5.22;;
12163;SDS011;6145;50.192;10.064;2023-06-19T12:33:30;6.13;;;5.63;;
12163;SDS011;6145;50.192;10.064;2023-06-19T12:38:58;5.80;;;5.30;;
12163;SDS011;6145;50.192;10.064;2023-06-19T12:41:25;6.20;;;5.65;;
12163;SDS011;6145;50.192;10.064;2023-06-19T12:43:54;5.43;;;5.03;;
12163;SDS011;6145;50.192;10.064;2023-06-19T12:46:23;5.95;;;5.47;;
12163;SDS011;6145;50.192;10.064;2023-06-19T12:48:50;5.72;;;5.22;;
12163;SDS011;6145;50.192;10.064;2023-06-19T12:51:17;6.70;;;6.10;;
12163;SDS011;6145;50.192;10.064;2023-06-19T12:53:44;6.32;;;5.72;;
12163;SDS011;6145;50.192;10.064;2023-06-19T12:56:10;5.35;;;4.95;;
12163;SDS011;6145;50.192;10.064;2023-06-19T12:58:37;5.35;;;4.97;;
12163;SDS011;6145;50.192;10.064;2023-06-19T13:01:05;5.82;;;5.32;;
12163;SDS011;6145;50.192;10.064;2023-06-19T13:03:32;5.97;;;5.45;;
12163;SDS011;6145;50.192;10.064;2023-06-19T13:06:13;6.00;;;5.47;;
12163;SDS011;6145;50.192;10.064;2023-06-19T13:08:41;5.97;;;5.50;;
12163;SDS011;6145;50.192;10.064;2023-06-19T13:11:10;6.18;;;5.72;;
12163;SDS011;6145;50.192;10.064;2023-06-19T13:13:38;6.40;;;5.90;;
12163;SDS011;6145;50.192;10.064;2023-06-19T13:16:06;6.38;;;5.88;;
12163;SDS011;6145;50.192;10.064;2023-06-19T13:18:40;6.22;;;5.72;;
12163;SDS011;6145;50.192;10.064;2023-06-19T13:21:07;5.68;;;5.25;;
12163;SDS011;6145;50.192;10.064;2023-06-19T13:23:34;6.63;;;6.13;;
12163;SDS011;6145;50.192;10.064;2023-06-19T13:26:01;6.53;;;5.93;;
12163;SDS011;6145;50.192;10.064;2023-06-19T13:28:28;6.30;;;5.70;;
12163;SDS011;6145;50.192;10.064;2023-06-19T13:30:55;6.68;;;6.18;;
12163;SDS011;6145;50.192;10.064;2023-06-19T13:33:23;6.72;;;6.22;;
12163;SDS011;6145;50.192;10.064;2023-06-19T13:35:50;6.07;;;5.57;;
12163;SDS011;6145;50.192;10.064;2023-06-19T13:38:19;6.00;;;5.38;;
12163;SDS011;6145;50.192;10.064;2023-06-19T13:40:46;5.82;;;5.40;;
12163;SDS011;6145;50.192;10.064;2023-06-19T13:43:21;6.57;;;5.97;;
12163;SDS011;6145;50.192;10.064;2023-06-19T13:45:54;6.45;;;5.95;;
12163;SDS011;6145;50.192;10.064;2023-06-19T13:48:22;5.95;;;5.35;;
12163;SDS011;6145;50.192;10.064;2023-06-19T13:50:49;6.47;;;5.97;;
12163;SDS011;6145;50.192;10.064;2023-06-19T13:53:16;6.00;;;5.47;;
12163;SDS011;6145;50.192;10.064;2023-06-19T13:55:43;6.50;;;5.97;;
12163;SDS011;6145;50.192;10.064;2023-06-19T13:58:09;5.68;;;5.28;;
12163;SDS011;6145;50.192;10.064;2023-06-19T14:00:36;7.45;;;5.10;;
12163;SDS011;6145;50.192;10.064;2023-06-19T14:03:04;6.35;;;5.75;;
12163;SDS011;6145;50.192;10.064;2023-06-19T14:05:33;6.30;;;5.65;;
12163;SDS011;6145;50.192;10.064;2023-06-19T14:08:01;6.70;;;5.50;;
12163;SDS011;6145;50.192;10.064;2023-06-19T14:10:28;5.90;;;5.40;;
12163;SDS011;6145;50.192;10.064;2023-06-19T14:12:56;9.13;;;6.25;;
12163;SDS011;6145;50.192;10.064;2023-06-19T14:15:29;8.75;;;6.03;;
12163;SDS011;6145;50.192;10.064;2023-06-19T14:18:04;6.93;;;6.15;;
12163;SDS011;6145;50.192;10.064;2023-06-19T14:20:30;6.22;;;5.72;;
12163;SDS011;6145;50.192;10.064;2023-06-19T14:22:59;6.25;;;5.57;;
12163;SDS011;6145;50.192;10.064;2023-06-19T14:25:26;6.03;;;5.53;;
12163;SDS011;6145;50.192;10.064;2023-06-19T14:27:52;5.50;;;5.10;;
12163;SDS011;6145;50.192;10.064;2023-06-19T14:30:21;5.93;;;5.32;;
12163;SDS011;6145;50.192;10.064;2023-06-19T14:32:48;6.10;;;5.60;;
12163;SDS011;6145;50.192;10.064;2023-06-19T14:35:15;6.20;;;5.60;;
12163;SDS011;6145;50.192;10.064;2023-06-19T14:37:42;6.00;;;5.40;;
12163;SDS011;6145;50.192;10.064;2023-06-19T14:40:11;6.18;;;5.65;;
12163;SDS011;6145;50.192;10.064;2023-06-19T14:42:38;5.70;;;5.20;;
12163;SDS011;6145;50.192;10.064;2023-06-19T14:45:05;5.90;;;5.10;;
12163;SDS011;6145;50.192;10.064;2023-06-19T14:47:33;6.55;;;5.53;;
12163;SDS011;6145;50.192;10.064;2023-06-19T14:50:00;6.10;;;5.60;;
12163;SDS011;6145;50.192;10.064;2023-06-19T14:52:32;6.18;;;5.68;;
12163;SDS011;6145;50.192;10.064;2023-06-19T14:54:59;6.25;;;5.75;;
12163;SDS011;6145;50.192;10.064;2023-06-19T14:57:27;6.45;;;5.85;;
12163;SDS011;6145;50.192;10.064;2023-06-19T14:59:54;6.32;;;5.82;;